createdAt,value
2023-01-31T00:01:17.839Z,67.22
2023-01-31T00:03:45.398Z,67.98
2023-01-31T00:06:14.911Z,67.12
2023-01-31T00:08:42.774Z,67.12
2023-01-31T00:11:10.436Z,67.14
2023-01-31T00:13:38.333Z,66.71
2023-01-31T00:16:06.242Z,66.30
2023-01-31T00:18:33.537Z,66.95
2023-01-31T00:21:17.928Z,67.24
2023-01-31T00:23:45.874Z,67.24
2023-01-31T00:26:17.526Z,66.98
2023-01-31T00:28:45.273Z,67.36
2023-01-31T00:31:13.291Z,67.09
2023-01-31T00:33:41.907Z,66.89
2023-01-31T00:36:10.691Z,67.20
2023-01-31T00:38:38.913Z,66.83
2023-01-31T00:41:06.213Z,66.79
2023-01-31T00:43:34.786Z,66.73
2023-01-31T00:46:03.002Z,66.38
2023-01-31T00:48:30.360Z,66.46
2023-01-31T00:50:57.709Z,66.74
2023-01-31T00:53:25.857Z,66.60
2023-01-31T00:55:54.090Z,66.33
2023-01-31T00:58:21.708Z,66.46
2023-01-31T01:00:49.160Z,66.68
2023-01-31T01:03:17.479Z,66.82
2023-01-31T01:05:44.756Z,66.76
2023-01-31T01:08:11.974Z,66.65
2023-01-31T01:10:39.593Z,66.70
2023-01-31T01:13:06.933Z,66.60
2023-01-31T01:15:37.532Z,66.53
2023-01-31T01:18:04.900Z,66.47
2023-01-31T01:20:32.337Z,66.31
2023-01-31T01:22:59.897Z,66.38
2023-01-31T01:25:27.574Z,65.94
2023-01-31T01:27:54.792Z,66.55
2023-01-31T01:30:22.017Z,66.61
2023-01-31T01:32:49.213Z,66.03
2023-01-31T01:35:16.528Z,66.54
2023-01-31T01:37:43.771Z,66.74
2023-01-31T01:40:11.557Z,66.81
2023-01-31T01:42:38.934Z,66.47
2023-01-31T01:45:16.060Z,66.75
2023-01-31T01:47:44.605Z,66.98
2023-01-31T01:50:11.990Z,66.80
2023-01-31T01:52:42.086Z,66.38
2023-01-31T01:55:36.245Z,66.35
2023-01-31T01:58:08.263Z,65.85
2023-01-31T02:00:37.221Z,65.64
2023-01-31T02:03:06.813Z,65.47
2023-01-31T02:05:40.495Z,65.89
2023-01-31T02:08:07.910Z,65.75
2023-01-31T02:10:42.199Z,66.11
2023-01-31T02:13:10.183Z,66.02
2023-01-31T02:15:37.890Z,65.73
2023-01-31T02:18:05.799Z,65.80
2023-01-31T02:20:46.198Z,65.73
2023-01-31T02:23:19.549Z,65.69
2023-01-31T02:25:50.010Z,66.05
2023-01-31T02:28:36.005Z,65.82
2023-01-31T02:31:16.606Z,65.86
2023-01-31T02:33:49.445Z,66.22
2023-01-31T02:36:39.943Z,66.27
2023-01-31T02:39:16.381Z,65.87
2023-01-31T02:41:50.194Z,65.68
2023-01-31T02:44:44.930Z,65.98
2023-01-31T02:47:22.154Z,65.59
2023-01-31T02:49:55.011Z,65.57
2023-01-31T02:52:34.637Z,65.72
2023-01-31T02:55:45.039Z,65.60
2023-01-31T02:58:15.454Z,65.79
2023-01-31T03:00:45.735Z,65.32
2023-01-31T03:03:18.162Z,65.57
2023-01-31T03:05:45.428Z,65.71
2023-01-31T03:08:16.421Z,65.76
2023-01-31T03:11:04.751Z,65.99
2023-01-31T03:13:35.308Z,65.25
2023-01-31T03:16:21.431Z,65.50
2023-01-31T03:19:01.609Z,65.48
2023-01-31T03:21:38.745Z,65.48
2023-01-31T03:24:07.344Z,65.33
2023-01-31T03:26:35.662Z,65.18
2023-01-31T03:29:04.185Z,65.28
2023-01-31T03:31:32.836Z,65.76
2023-01-31T03:34:04.079Z,65.36
2023-01-31T03:36:48.075Z,65.37
2023-01-31T03:39:39.039Z,65.46
2023-01-31T03:42:28.894Z,65.75
2023-01-31T03:45:01.839Z,65.58
2023-01-31T03:47:33.074Z,65.44
2023-01-31T03:50:02.847Z,65.36
2023-01-31T03:52:33.843Z,65.49
2023-01-31T03:55:07.208Z,65.42
2023-01-31T03:57:36.721Z,64.88
2023-01-31T04:00:06.138Z,65.34
2023-01-31T04:02:42.720Z,65.21
2023-01-31T04:05:14.819Z,64.75
2023-01-31T04:07:44.625Z,65.26
2023-01-31T04:10:20.452Z,65.56
2023-01-31T04:12:47.933Z,65.03
2023-01-31T04:15:15.958Z,65.32
2023-01-31T04:17:43.209Z,65.27
2023-01-31T04:20:10.939Z,65.56
2023-01-31T04:22:38.394Z,65.72
2023-01-31T04:25:06.100Z,65.73
2023-01-31T04:27:33.393Z,65.07
2023-01-31T04:30:02.907Z,65.30
2023-01-31T04:32:30.325Z,65.48
2023-01-31T04:34:57.763Z,65.08
2023-01-31T04:37:25.045Z,64.97
2023-01-31T04:39:52.286Z,64.62
2023-01-31T04:42:21.578Z,64.86
2023-01-31T04:44:48.971Z,65.07
2023-01-31T04:47:16.234Z,65.05
2023-01-31T04:49:44.368Z,65.18
2023-01-31T04:52:11.702Z,65.12
2023-01-31T04:54:38.899Z,65.56
2023-01-31T04:57:06.685Z,65.50
2023-01-31T04:59:33.913Z,65.52
2023-01-31T05:02:01.123Z,65.47
2023-01-31T05:04:28.396Z,65.72
2023-01-31T05:06:55.752Z,65.68
2023-01-31T05:09:23.049Z,65.90
2023-01-31T05:11:50.353Z,65.99
2023-01-31T05:14:17.916Z,65.47
2023-01-31T05:16:47.425Z,65.74
2023-01-31T05:19:15.993Z,65.73
2023-01-31T05:21:55.394Z,66.11
2023-01-31T05:24:22.834Z,66.39
2023-01-31T05:26:51.703Z,66.05
2023-01-31T05:29:19.172Z,65.83
2023-01-31T05:31:46.749Z,65.53
2023-01-31T05:34:16.165Z,65.73
2023-01-31T05:36:43.397Z,66.68
2023-01-31T05:39:10.698Z,66.39
2023-01-31T05:41:37.982Z,65.92
2023-01-31T05:44:05.359Z,66.49
2023-01-31T05:46:32.780Z,66.62
2023-01-31T05:49:00.060Z,66.42
2023-01-31T05:51:27.385Z,66.70
2023-01-31T05:53:55.133Z,66.11
2023-01-31T05:56:22.610Z,66.32
2023-01-31T05:58:51.126Z,66.51
2023-01-31T06:01:20.223Z,66.38
2023-01-31T06:03:48.766Z,66.20
2023-01-31T06:06:16.397Z,65.83
2023-01-31T06:08:43.834Z,66.05
2023-01-31T06:11:12.157Z,66.27
2023-01-31T06:13:40.376Z,66.03
2023-01-31T06:16:07.670Z,65.94
2023-01-31T06:18:34.846Z,66.15
2023-01-31T06:21:02.160Z,66.10
2023-01-31T06:23:29.681Z,66.59
2023-01-31T06:25:57.126Z,66.48
2023-01-31T06:28:24.400Z,66.30
2023-01-31T06:30:51.690Z,66.54
2023-01-31T06:33:19.046Z,66.83
2023-01-31T06:35:46.291Z,66.50
2023-01-31T06:38:13.648Z,66.43
2023-01-31T06:40:42.948Z,66.94
2023-01-31T06:43:10.185Z,66.79
2023-01-31T06:45:38.014Z,66.05
2023-01-31T06:48:05.257Z,65.72
2023-01-31T06:50:35.264Z,65.98
2023-01-31T06:53:02.573Z,66.15
2023-01-31T06:55:30.375Z,66.70
2023-01-31T06:57:57.745Z,66.59
2023-01-31T07:00:25.844Z,66.40
2023-01-31T07:02:56.841Z,66.10
2023-01-31T07:05:24.515Z,66.04
2023-01-31T07:07:51.708Z,66.13
2023-01-31T07:10:18.988Z,66.38
2023-01-31T07:12:46.262Z,65.72
2023-01-31T07:15:13.981Z,65.84
2023-01-31T07:17:41.440Z,65.67
2023-01-31T07:20:08.998Z,66.07
2023-01-31T07:22:36.501Z,66.18
2023-01-31T07:25:03.982Z,66.42
2023-01-31T07:27:31.266Z,66.46
2023-01-31T07:29:58.648Z,66.07
2023-01-31T07:32:29.898Z,65.68
2023-01-31T07:34:57.214Z,65.32
2023-01-31T07:37:24.473Z,65.16
2023-01-31T07:39:51.998Z,65.48
2023-01-31T07:42:19.993Z,65.40
2023-01-31T07:44:49.556Z,65.45
2023-01-31T07:47:17.117Z,65.36
2023-01-31T07:49:44.578Z,65.64
2023-01-31T07:52:11.836Z,65.73
2023-01-31T07:54:39.105Z,65.66
2023-01-31T07:57:06.421Z,66.00
2023-01-31T07:59:33.829Z,66.21
2023-01-31T08:02:19.707Z,65.65
2023-01-31T08:04:47.693Z,65.91
2023-01-31T08:07:15.068Z,66.00
2023-01-31T08:09:43.826Z,65.51
2023-01-31T08:12:11.242Z,65.08
2023-01-31T08:14:38.492Z,65.41
2023-01-31T08:17:08.451Z,65.17
2023-01-31T08:19:36.093Z,65.51
2023-01-31T08:22:04.719Z,65.08
2023-01-31T08:24:32.923Z,65.11
2023-01-31T08:27:00.798Z,65.23
2023-01-31T08:29:28.046Z,64.61
2023-01-31T08:31:55.495Z,64.54
2023-01-31T08:34:23.668Z,64.51
2023-01-31T08:36:50.914Z,64.09
2023-01-31T08:39:18.324Z,64.21
2023-01-31T08:41:46.063Z,64.70
2023-01-31T08:44:14.004Z,65.00
2023-01-31T08:46:42.143Z,65.11
2023-01-31T08:49:12.769Z,65.18
2023-01-31T08:51:40.317Z,65.37
2023-01-31T08:54:18.584Z,64.68
2023-01-31T08:56:48.240Z,64.29
2023-01-31T08:59:16.741Z,63.77
2023-01-31T09:01:46.779Z,63.92
2023-01-31T09:04:14.151Z,63.69
2023-01-31T09:06:43.271Z,63.76
2023-01-31T09:09:12.191Z,63.71
2023-01-31T09:11:39.819Z,63.79
2023-01-31T09:14:07.040Z,64.23
2023-01-31T09:16:34.377Z,63.76
2023-01-31T09:19:01.703Z,64.12
2023-01-31T09:21:29.955Z,63.70
2023-01-31T09:23:59.317Z,63.99
2023-01-31T09:26:26.725Z,63.93
2023-01-31T09:28:54.426Z,64.38
2023-01-31T09:31:21.671Z,64.22
2023-01-31T09:33:49.203Z,63.93
2023-01-31T09:36:17.985Z,63.41
2023-01-31T09:38:45.687Z,63.28
2023-01-31T09:41:19.675Z,63.90
2023-01-31T09:43:50.668Z,63.08
2023-01-31T09:46:19.609Z,62.80
2023-01-31T09:48:49.316Z,63.14
2023-01-31T09:51:19.378Z,62.90
2023-01-31T09:53:47.438Z,62.47
2023-01-31T09:56:35.909Z,62.25
2023-01-31T09:59:21.845Z,63.23
2023-01-31T10:01:52.292Z,63.01
2023-01-31T10:04:19.943Z,62.73
2023-01-31T10:06:47.218Z,62.68
2023-01-31T10:09:23.947Z,62.44
2023-01-31T10:12:04.276Z,62.48
2023-01-31T10:14:34.724Z,61.44
2023-01-31T10:17:17.576Z,61.94
2023-01-31T10:19:52.185Z,61.94
2023-01-31T10:22:26.176Z,61.79
2023-01-31T10:24:57.598Z,61.67
2023-01-31T10:27:41.311Z,61.49
2023-01-31T10:30:14.996Z,62.04
2023-01-31T10:32:45.391Z,62.04
2023-01-31T10:35:16.365Z,62.23
2023-01-31T10:37:46.978Z,62.16
2023-01-31T10:40:16.459Z,61.92
2023-01-31T10:42:49.943Z,62.15
2023-01-31T10:45:20.409Z,61.33
2023-01-31T10:47:52.890Z,61.47
2023-01-31T10:50:26.308Z,61.75
2023-01-31T10:53:02.089Z,61.95
2023-01-31T10:55:29.300Z,62.11
2023-01-31T10:58:09.060Z,62.21
2023-01-31T11:04:29.779Z,62.46
2023-01-31T11:06:58.702Z,61.85
2023-01-31T11:09:28.202Z,61.69
2023-01-31T11:11:57.639Z,61.44
2023-01-31T11:14:24.919Z,61.80
2023-01-31T11:17:18.558Z,62.44
2023-01-31T11:19:50.609Z,62.20
2023-01-31T11:22:30.804Z,62.04
2023-01-31T11:24:59.470Z,61.83
2023-01-31T11:27:30.396Z,61.57
2023-01-31T11:30:00.314Z,61.98
2023-01-31T11:32:29.781Z,62.23
2023-01-31T11:34:58.587Z,62.46
2023-01-31T11:37:27.060Z,62.45
2023-01-31T11:40:03.061Z,62.25
2023-01-31T11:42:30.722Z,62.51
2023-01-31T11:45:00.362Z,62.82
2023-01-31T11:47:39.836Z,62.34
2023-01-31T11:50:08.142Z,62.03
2023-01-31T11:52:35.606Z,62.42
2023-01-31T11:55:08.460Z,62.86
2023-01-31T11:57:37.067Z,62.38
2023-01-31T12:00:07.846Z,62.21
2023-01-31T12:02:42.263Z,62.34
2023-01-31T12:05:11.129Z,62.68
2023-01-31T12:07:57.436Z,62.84
2023-01-31T12:10:30.681Z,62.80
2023-01-31T12:13:17.650Z,62.46
2023-01-31T12:16:06.282Z,62.89
2023-01-31T12:18:39.809Z,62.30
2023-01-31T12:21:13.313Z,62.26
2023-01-31T12:23:44.356Z,62.86
2023-01-31T12:26:21.911Z,62.33
2023-01-31T12:29:00.114Z,62.50
2023-01-31T12:31:27.349Z,62.84
2023-01-31T12:34:15.372Z,62.76
2023-01-31T12:36:45.428Z,63.11
2023-01-31T12:39:26.465Z,63.55
2023-01-31T12:42:14.627Z,63.31
2023-01-31T12:44:41.888Z,63.57
2023-01-31T12:47:16.253Z,63.93
2023-01-31T12:49:58.815Z,63.68
2023-01-31T12:52:35.591Z,63.51
2023-01-31T12:55:18.643Z,63.59
2023-01-31T12:58:16.927Z,63.78
2023-01-31T13:00:55.859Z,64.11
2023-01-31T13:03:42.048Z,64.05
2023-01-31T13:06:15.897Z,64.00
2023-01-31T13:09:01.518Z,64.35
2023-01-31T13:11:36.798Z,64.24
2023-01-31T13:14:05.480Z,63.90
2023-01-31T13:16:37.455Z,64.24
2023-01-31T13:19:06.929Z,64.41
2023-01-31T13:21:39.383Z,64.81
2023-01-31T13:24:15.712Z,64.41
2023-01-31T13:26:44.577Z,64.69
2023-01-31T13:29:19.100Z,65.10
2023-01-31T13:31:57.336Z,64.73
2023-01-31T13:34:29.450Z,64.78
2023-01-31T13:37:07.731Z,65.07
2023-01-31T13:39:43.692Z,65.15
2023-01-31T13:42:15.338Z,64.86
2023-01-31T13:44:43.389Z,63.97
2023-01-31T13:47:20.844Z,63.91
2023-01-31T13:49:50.937Z,64.49
2023-01-31T13:52:25.514Z,64.58
2023-01-31T13:55:00.344Z,64.70
2023-01-31T13:57:31.174Z,64.23
2023-01-31T14:00:07.876Z,64.30
2023-01-31T14:02:35.387Z,64.28
2023-01-31T14:05:25.437Z,64.72
2023-01-31T14:08:11.374Z,64.34
2023-01-31T14:10:43.021Z,64.49
2023-01-31T14:13:33.330Z,64.75
2023-01-31T14:16:00.844Z,64.30
2023-01-31T14:18:46.299Z,64.51
2023-01-31T14:21:32.428Z,64.94
2023-01-31T14:24:04.178Z,64.48
2023-01-31T14:26:50.519Z,64.48
2023-01-31T14:29:21.053Z,63.95
2023-01-31T14:31:49.241Z,63.65
2023-01-31T14:34:36.771Z,63.74
2023-01-31T14:37:07.077Z,64.43
2023-01-31T14:39:42.253Z,64.18
2023-01-31T14:42:24.670Z,64.07
2023-01-31T14:45:04.422Z,64.24
2023-01-31T14:47:37.902Z,64.10
2023-01-31T14:50:14.468Z,64.08
2023-01-31T14:52:48.832Z,63.84
2023-01-31T14:55:22.726Z,64.41
2023-01-31T14:57:53.129Z,64.34
2023-01-31T15:00:26.086Z,64.18
2023-01-31T15:02:58.754Z,64.55
2023-01-31T15:05:33.492Z,64.56
2023-01-31T15:08:02.465Z,64.44
2023-01-31T15:10:48.587Z,64.61
2023-01-31T15:13:34.781Z,64.37
2023-01-31T15:16:04.385Z,64.38
2023-01-31T15:18:31.809Z,64.50
2023-01-31T15:21:01.369Z,64.40
2023-01-31T15:23:30.302Z,64.36
2023-01-31T15:25:59.022Z,64.56
2023-01-31T15:28:28.586Z,64.49
2023-01-31T15:31:00.513Z,64.45
2023-01-31T15:33:57.074Z,64.56
2023-01-31T15:36:30.712Z,64.72
2023-01-31T15:39:00.939Z,65.02
2023-01-31T15:41:41.224Z,64.78
2023-01-31T15:44:28.349Z,64.49
2023-01-31T15:46:57.160Z,64.42
2023-01-31T15:49:39.488Z,64.29
2023-01-31T15:52:20.914Z,64.58
2023-01-31T15:54:52.542Z,64.71
2023-01-31T15:57:20.914Z,64.42
2023-01-31T15:59:48.817Z,64.94
2023-01-31T16:02:34.215Z,64.95
2023-01-31T16:05:04.881Z,64.88
2023-01-31T16:07:32.159Z,64.73
2023-01-31T16:10:02.173Z,64.74
2023-01-31T16:12:31.933Z,65.20
2023-01-31T16:15:03.106Z,64.68
2023-01-31T16:17:31.217Z,64.68
2023-01-31T16:19:58.569Z,64.72
2023-01-31T16:22:27.483Z,64.91
2023-01-31T16:24:56.165Z,65.01
2023-01-31T16:27:24.057Z,65.25
2023-01-31T16:29:53.496Z,65.10
2023-01-31T16:32:20.855Z,64.87
2023-01-31T16:34:54.987Z,65.55
2023-01-31T16:37:33.533Z,65.09
2023-01-31T16:40:04.653Z,64.95
2023-01-31T16:42:33.376Z,64.99
2023-01-31T16:45:01.593Z,65.08
2023-01-31T16:47:46.994Z,65.39
2023-01-31T16:50:17.360Z,65.42
2023-01-31T16:52:46.715Z,65.33
2023-01-31T16:55:15.297Z,65.30
2023-01-31T16:57:42.536Z,65.48
2023-01-31T17:00:31.516Z,65.28
2023-01-31T17:02:59.629Z,65.21
2023-01-31T17:05:38.363Z,65.16
2023-01-31T17:08:05.986Z,65.58
2023-01-31T17:10:34.324Z,65.25
2023-01-31T17:13:04.056Z,65.82
2023-01-31T17:15:31.238Z,65.81
2023-01-31T17:17:59.065Z,65.84
2023-01-31T17:20:26.573Z,66.17
2023-01-31T17:23:02.378Z,65.72
2023-01-31T17:25:34.751Z,65.47
2023-01-31T17:28:02.317Z,65.67
2023-01-31T17:30:30.632Z,66.33
2023-01-31T17:32:58.223Z,66.42
2023-01-31T17:35:25.571Z,66.48
2023-01-31T17:37:52.801Z,66.33
2023-01-31T17:40:20.138Z,66.69
2023-01-31T17:42:47.543Z,66.20
2023-01-31T17:45:15.721Z,66.28
2023-01-31T17:47:44.100Z,66.13
2023-01-31T17:50:17.133Z,66.45
2023-01-31T17:52:44.775Z,66.35
2023-01-31T17:55:12.528Z,66.94
2023-01-31T17:57:40.618Z,66.78
2023-01-31T18:00:11.000Z,67.14
2023-01-31T18:02:38.535Z,66.54
2023-01-31T18:05:06.115Z,67.23
2023-01-31T18:07:34.679Z,66.88
2023-01-31T18:10:01.871Z,66.72
2023-01-31T18:12:30.286Z,67.35
2023-01-31T18:14:57.522Z,67.19
2023-01-31T18:17:24.927Z,66.94
2023-01-31T18:19:52.129Z,66.98
2023-01-31T18:22:24.079Z,66.55
2023-01-31T18:24:51.343Z,66.37
2023-01-31T18:27:18.973Z,66.56
2023-01-31T18:29:46.186Z,66.99
2023-01-31T18:32:13.345Z,67.20
2023-01-31T18:34:40.531Z,67.37
2023-01-31T18:37:13.159Z,67.16
2023-01-31T18:39:42.516Z,66.70
2023-01-31T18:42:09.713Z,66.50
2023-01-31T18:44:36.978Z,67.10
2023-01-31T18:47:04.284Z,66.68
2023-01-31T18:49:32.411Z,67.02
2023-01-31T18:51:59.619Z,67.14
2023-01-31T18:54:26.961Z,67.38
2023-01-31T18:56:54.183Z,67.06
2023-01-31T18:59:21.445Z,67.17
2023-01-31T19:01:48.779Z,66.84
2023-01-31T19:04:16.208Z,66.99
2023-01-31T19:06:44.490Z,66.79
2023-01-31T19:09:12.707Z,67.31
2023-01-31T19:11:43.505Z,67.79
2023-01-31T19:14:12.043Z,67.46
2023-01-31T19:16:40.572Z,67.13
2023-01-31T19:19:08.400Z,67.22
2023-01-31T19:21:36.341Z,67.44
2023-01-31T19:24:11.617Z,67.63
2023-01-31T19:26:38.898Z,67.26
2023-01-31T19:29:09.320Z,67.58
2023-01-31T19:31:37.171Z,67.76
2023-01-31T19:34:06.178Z,67.14
2023-01-31T19:36:35.223Z,67.13
2023-01-31T19:39:06.997Z,66.90
2023-01-31T19:41:34.469Z,67.06
2023-01-31T19:44:01.948Z,66.97
2023-01-31T19:46:30.994Z,67.28
2023-01-31T19:48:58.836Z,66.84
2023-01-31T19:51:26.939Z,67.34
2023-01-31T19:53:55.539Z,67.38
2023-01-31T19:56:24.370Z,67.50
2023-01-31T19:58:51.716Z,67.11
2023-01-31T20:01:19.390Z,66.88
2023-01-31T20:03:46.617Z,67.52
2023-01-31T20:06:16.089Z,66.97
2023-01-31T20:08:43.360Z,66.73
2023-01-31T20:11:13.079Z,66.49
2023-01-31T20:13:40.497Z,67.00
2023-01-31T20:16:09.249Z,67.20
2023-01-31T20:18:37.381Z,66.83
2023-01-31T20:21:05.586Z,67.12
2023-01-31T20:23:33.112Z,67.58
2023-01-31T20:26:01.597Z,67.64
2023-01-31T20:28:28.817Z,67.45
2023-01-31T20:30:56.335Z,67.65
2023-01-31T20:33:28.648Z,67.50
2023-01-31T20:35:55.887Z,67.28
2023-01-31T20:38:23.187Z,67.28
2023-01-31T20:40:51.480Z,66.65
2023-01-31T20:43:19.124Z,66.69
2023-01-31T20:45:46.516Z,67.08
2023-01-31T20:48:14.161Z,67.46
2023-01-31T20:50:43.815Z,67.37
2023-01-31T20:53:17.988Z,67.62
2023-01-31T20:55:58.446Z,67.48
2023-01-31T20:58:26.855Z,66.96
2023-01-31T21:00:54.760Z,67.91
2023-01-31T21:03:22.383Z,67.80
2023-01-31T21:05:50.393Z,67.66
2023-01-31T21:08:18.488Z,67.36
2023-01-31T21:10:52.311Z,67.23
2023-01-31T21:13:20.206Z,67.96
2023-01-31T21:15:49.249Z,67.64
2023-01-31T21:18:16.893Z,67.74
2023-01-31T21:20:44.252Z,67.64
2023-01-31T21:23:11.564Z,67.45
2023-01-31T21:25:38.840Z,67.59
2023-01-31T21:28:06.152Z,67.83
2023-01-31T21:30:33.407Z,67.12
2023-01-31T21:33:00.644Z,67.61
2023-01-31T21:35:27.909Z,67.45
2023-01-31T21:37:55.128Z,68.05
2023-01-31T21:40:22.685Z,67.91
2023-01-31T21:42:54.083Z,67.28
2023-01-31T21:45:39.836Z,67.67
2023-01-31T21:48:26.902Z,67.41
2023-01-31T21:50:54.443Z,67.39
2023-01-31T21:53:22.004Z,67.65
2023-01-31T21:55:49.255Z,67.57
2023-01-31T21:58:16.561Z,67.65
2023-01-31T22:00:44.294Z,67.54
2023-01-31T22:03:11.669Z,67.81
2023-01-31T22:05:38.883Z,67.95
2023-01-31T22:08:06.130Z,67.97
2023-01-31T22:10:33.358Z,67.62
2023-01-31T22:13:00.542Z,67.61
2023-01-31T22:15:27.836Z,67.73
2023-01-31T22:17:55.092Z,68.30
2023-01-31T22:20:22.629Z,68.10
2023-01-31T22:22:50.129Z,68.43
2023-01-31T22:25:17.379Z,68.27
2023-01-31T22:27:47.468Z,68.07
2023-01-31T22:30:16.443Z,68.26
2023-01-31T22:32:44.125Z,68.10
2023-01-31T22:35:11.413Z,68.27
2023-01-31T22:37:38.672Z,68.53
2023-01-31T22:40:06.172Z,68.62
2023-01-31T22:42:33.522Z,68.41
2023-01-31T22:45:00.891Z,68.43
2023-01-31T22:47:29.858Z,68.43
2023-01-31T22:49:57.051Z,68.46
2023-01-31T22:52:24.265Z,68.69
2023-01-31T22:54:51.458Z,69.09
2023-01-31T22:57:18.637Z,68.69
2023-01-31T22:59:45.830Z,69.02
2023-01-31T23:02:13.086Z,68.73
2023-01-31T23:04:40.392Z,68.72
2023-01-31T23:07:10.638Z,68.91
2023-01-31T23:09:37.923Z,68.52
2023-01-31T23:12:05.351Z,69.00
2023-01-31T23:14:32.548Z,69.04
2023-01-31T23:17:18.308Z,68.63
2023-01-31T23:19:45.618Z,68.98
2023-01-31T23:22:14.201Z,69.09
2023-01-31T23:24:41.388Z,68.89
2023-01-31T23:27:09.688Z,68.63
2023-01-31T23:29:37.010Z,68.67
2023-01-31T23:32:04.326Z,68.96
2023-01-31T23:34:31.576Z,68.98
2023-01-31T23:36:58.955Z,68.83
2023-01-31T23:39:26.205Z,68.82
2023-01-31T23:41:53.461Z,68.87
2023-01-31T23:44:20.649Z,68.27
2023-01-31T23:46:47.828Z,68.40
2023-01-31T23:49:15.103Z,68.15
2023-01-31T23:51:42.423Z,68.30
2023-01-31T23:54:10.638Z,68.58
2023-01-31T23:56:37.847Z,68.47
2023-01-31T23:59:05.170Z,68.41
